Time;durP1;ratioP1;P1;durP2;ratioP2;P2;SDS_P1;SDS_P2;PMS_P1;PMS_P2;Temp;Humidity;BMP_temperature;BMP_pressure;BME280_temperature;BME280_humidity;BME280_pressure;Samples;Min_cycle;Max_cycle;Signal;HPM_P1;HPM_P2
2021/07/24 00:02:26;;;;;;;26.33;12.70;;;;;;;19.96;80.34;95812.44;5030246;28;20655;-88
2021/07/24 00:04:52;;;;;;;25.48;12.80;;;;;;;20.10;79.97;95808.38;5030469;28;20604;-88
2021/07/24 00:07:19;;;;;;;20.98;12.77;;;;;;;20.05;79.70;95814.47;5034254;28;20236;-88
2021/07/24 00:09:45;;;;;;;22.95;12.57;;;;;;;19.93;80.75;95803.03;5034723;28;20213;-88
2021/07/24 00:12:12;;;;;;;23.48;12.82;;;;;;;19.70;82.37;95808.56;5035307;28;20210;-89
2021/07/24 00:14:39;;;;;;;20.38;12.00;;;;;;;19.66;82.39;95801.25;5035060;28;20214;-89
2021/07/24 00:17:07;;;;;;;21.58;12.13;;;;;;;20.02;80.32;95796.25;5035230;28;20686;-88
2021/07/24 00:19:34;;;;;;;20.05;12.15;;;;;;;19.88;80.64;95791.44;5033954;28;20202;-88
2021/07/24 00:22:00;;;;;;;22.98;13.13;;;;;;;19.88;80.34;95786.09;5034148;28;20202;-88
2021/07/24 00:24:26;;;;;;;23.45;12.85;;;;;;;20.04;80.24;95787.97;5034027;28;20206;-88
2021/07/24 00:26:53;;;;;;;21.00;11.80;;;;;;;20.05;79.57;95777.03;5033048;28;20226;-88
2021/07/24 00:29:19;;;;;;;22.73;11.85;;;;;;;19.99;79.39;95766.50;5034049;28;20209;-88
2021/07/24 00:31:46;;;;;;;22.15;12.45;;;;;;;19.90;79.99;95766.06;5033091;28;20768;-88
2021/07/24 00:34:17;;;;;;;22.65;12.48;;;;;;;20.17;79.78;95763.53;5032758;28;20202;-88
2021/07/24 00:36:44;;;;;;;22.40;12.48;;;;;;;19.86;80.19;95764.16;5032177;28;20229;-88
2021/07/24 00:39:10;;;;;;;20.40;12.00;;;;;;;19.96;79.69;95769.66;5032429;28;20201;-88
2021/07/24 00:41:42;;;;;;;21.83;12.02;;;;;;;19.79;80.62;95761.63;5032373;28;20213;-89
2021/07/24 00:44:09;;;;;;;23.17;11.60;;;;;;;19.75;80.45;95763.16;5033471;28;20195;-88
2021/07/24 00:46:37;;;;;;;20.98;11.82;;;;;;;20.03;79.53;95759.59;5033857;28;20225;-88
2021/07/24 00:49:04;;;;;;;21.02;12.85;;;;;;;19.81;80.90;95756.84;5034141;28;20229;-89
2021/07/24 00:51:33;;;;;;;24.10;12.65;;;;;;;19.69;81.33;95739.25;5034142;28;20210;-88
2021/07/24 00:54:00;;;;;;;25.58;13.48;;;;;;;19.75;80.58;95743.66;5033650;28;20209;-88
2021/07/24 00:56:27;;;;;;;22.42;11.70;;;;;;;19.80;79.97;95736.50;5033754;28;20261;-88
2021/07/24 00:58:55;;;;;;;23.17;11.82;;;;;;;19.65;80.75;95733.63;5032757;28;20198;-88
2021/07/24 01:01:22;;;;;;;21.13;12.10;;;;;;;19.76;80.01;95734.56;5032814;28;20209;-88
2021/07/24 01:03:48;;;;;;;20.30;11.25;;;;;;;19.63;80.74;95738.38;5031722;28;20737;-88
2021/07/24 01:06:16;;;;;;;23.92;13.10;;;;;;;19.57;81.88;95734.00;5032306;28;20229;-88
2021/07/24 01:08:44;;;;;;;24.63;12.82;;;;;;;19.72;82.26;95734.25;5032762;28;20237;-88
2021/07/24 01:11:12;;;;;;;21.92;12.95;;;;;;;19.70;82.80;95731.03;5032765;28;20205;-88
2021/07/24 01:13:40;;;;;;;23.63;13.10;;;;;;;19.50;82.86;95742.44;5032710;28;20217;-88
2021/07/24 01:16:08;;;;;;;23.55;11.95;;;;;;;19.25;83.11;95736.72;5033396;28;20229;-88
2021/07/24 01:18:35;;;;;;;18.90;11.25;;;;;;;19.54;81.00;95732.88;5032685;28;20202;-89
2021/07/24 01:21:05;;;;;;;21.45;12.07;;;;;;;19.74;80.65;95726.81;5033023;28;20581;-88
2021/07/24 01:23:33;;;;;;;25.38;13.25;;;;;;;19.78;81.04;95733.28;5033098;28;20194;-88
2021/07/24 01:26:00;;;;;;;23.33;12.93;;;;;;;19.74;80.94;95737.50;5032917;28;20229;-88
2021/07/24 01:28:29;;;;;;;22.25;13.07;;;;;;;19.59;81.01;95736.47;5033010;28;20229;-89
2021/07/24 01:30:55;;;;;;;19.50;12.25;;;;;;;19.60;81.24;95735.38;5033379;28;20217;-88
2021/07/24 01:33:22;;;;;;;20.17;11.93;;;;;;;19.52;81.48;95737.69;5033911;28;20213;-88
2021/07/24 01:35:50;;;;;;;21.23;12.88;;;;;;;19.56;81.99;95736.13;5033128;28;20221;-89
2021/07/24 01:38:18;;;;;;;22.02;12.35;;;;;;;19.51;81.08;95730.72;5032717;28;20233;-88
2021/07/24 01:40:46;;;;;;;18.92;12.20;;;;;;;19.43;81.37;95733.78;5032817;28;20209;-88
2021/07/24 01:43:12;;;;;;;23.90;12.02;;;;;;;19.02;82.87;95726.94;5032381;28;20208;-88
2021/07/24 01:45:41;;;;;;;25.80;11.95;;;;;;;19.38;81.17;95728.38;5032139;28;20722;-88
2021/07/24 01:48:11;;;;;;;25.55;12.27;;;;;;;19.38;82.00;95736.38;5031417;28;20229;-88
2021/07/24 01:53:26;;;;;;;19.02;11.15;;;;;;;19.14;81.02;95734.91;5031671;28;20312;-88
2021/07/24 01:55:57;;;;;;;24.65;11.82;;;;;;;19.34;80.19;95729.91;5033561;28;20225;-88
2021/07/24 01:58:28;;;;;;;20.98;11.73;;;;;;;19.41;80.14;95733.22;5033608;28;20193;-88
2021/07/24 02:00:56;;;;;;;21.88;11.77;;;;;;;19.35;79.96;95736.88;5033586;28;20197;-88
2021/07/24 02:03:27;;;;;;;25.25;11.77;;;;;;;19.31;80.58;95735.72;5033358;28;20201;-88
2021/07/24 02:05:54;;;;;;;21.02;11.48;;;;;;;19.28;79.92;95737.00;5033078;28;20222;-87
2021/07/24 02:08:23;;;;;;;20.23;11.38;;;;;;;19.37;79.68;95740.09;5033239;28;20232;-88
2021/07/24 02:10:50;;;;;;;20.80;10.98;;;;;;;19.06;81.56;95754.81;5033187;28;20708;-88
2021/07/24 02:13:19;;;;;;;22.27;12.48;;;;;;;19.23;81.06;95760.16;5032794;28;20206;-88
2021/07/24 02:15:46;;;;;;;23.90;12.18;;;;;;;19.13;81.23;95754.63;5033148;28;20580;-87
2021/07/24 02:18:17;;;;;;;23.70;13.00;;;;;;;19.08;81.62;95767.91;5033177;28;20205;-88
2021/07/24 02:20:45;;;;;;;20.52;12.70;;;;;;;18.98;83.07;95747.16;5033074;28;20182;-88
2021/07/24 02:23:12;;;;;;;21.58;11.25;;;;;;;19.01;81.17;95740.53;5033108;28;20209;-88
2021/07/24 02:25:38;;;;;;;23.15;12.02;;;;;;;18.98;81.06;95735.66;5033117;28;20229;-88
2021/07/24 02:28:05;;;;;;;26.42;12.75;;;;;;;18.91;80.92;95734.19;5032850;28;20224;-88
2021/07/24 02:30:33;;;;;;;24.77;13.88;;;;;;;18.88;82.97;95729.34;5032877;28;20205;-88
2021/07/24 02:33:00;;;;;;;28.75;13.85;;;;;;;18.72;83.60;95733.56;5032849;28;20216;-87
2021/07/24 02:35:26;;;;;;;28.15;14.00;;;;;;;18.81;83.23;95732.13;5032713;28;20222;-88
2021/07/24 02:37:53;;;;;;;26.98;14.18;;;;;;;18.82;83.83;95746.31;5032842;28;20221;-87
2021/07/24 02:40:21;;;;;;;21.65;13.65;;;;;;;18.81;83.98;95748.16;5032681;28;20650;-87
2021/07/24 02:42:48;;;;;;;28.70;15.57;;;;;;;18.86;85.59;95745.59;5032737;28;20198;-88
2021/07/24 02:45:15;;;;;;;29.33;16.38;;;;;;;18.85;86.04;95764.50;5032900;28;20222;-88
2021/07/24 02:47:43;;;;;;;24.55;14.35;;;;;;;18.86;85.75;95763.47;5032649;28;20210;-88
2021/07/24 02:50:10;;;;;;;26.40;14.43;;;;;;;18.43;85.22;95780.00;5032853;28;20221;-88
2021/07/24 02:52:37;;;;;;;29.45;14.85;;;;;;;18.46;84.96;95782.19;5032956;28;20201;-89
2021/07/24 02:55:03;;;;;;;28.27;13.43;;;;;;;18.66;83.48;95771.91;5032756;28;20583;-88
2021/07/24 02:57:30;;;;;;;25.83;13.80;;;;;;;18.62;83.04;95765.44;5032575;28;20208;-88
2021/07/24 02:59:56;;;;;;;28.65;13.45;;;;;;;18.64;83.90;95771.31;5032936;28;20670;-88
2021/07/24 03:02:23;;;;;;;29.42;15.80;;;;;;;18.58;84.73;95758.94;5032546;28;20202;-88
2021/07/24 03:04:51;;;;;;;31.00;14.25;;;;;;;18.69;84.72;95757.28;5032657;28;20675;-88
2021/07/24 03:07:18;;;;;;;28.67;15.18;;;;;;;18.55;84.78;95751.41;5032782;28;20557;-88
2021/07/24 03:09:44;;;;;;;32.20;16.20;;;;;;;18.64;84.69;95755.31;5032903;28;20238;-88
2021/07/24 03:12:11;;;;;;;29.85;15.23;;;;;;;18.69;84.21;95755.41;5032584;28;20209;-88
2021/07/24 03:14:37;;;;;;;25.80;14.90;;;;;;;18.69;83.70;95757.28;5032527;28;20833;-88
2021/07/24 03:17:04;;;;;;;27.52;14.32;;;;;;;18.88;82.89;95761.38;5032522;28;20221;-88
2021/07/24 03:19:31;;;;;;;27.40;14.75;;;;;;;18.91;82.68;95759.03;5032602;28;20201;-88
2021/07/24 03:21:58;;;;;;;25.25;14.98;;;;;;;18.81;83.34;95764.16;5032600;28;20205;-88
2021/07/24 03:24:25;;;;;;;24.98;14.85;;;;;;;18.73;83.16;95753.09;5032353;28;20209;-88
2021/07/24 03:26:51;;;;;;;26.17;14.70;;;;;;;18.82;82.58;95741.78;5032647;28;20218;-88
2021/07/24 03:29:18;;;;;;;34.22;14.88;;;;;;;18.88;82.43;95745.38;5032285;28;20222;-88
2021/07/24 03:31:45;;;;;;;33.28;14.98;;;;;;;18.86;82.21;95745.59;5032456;28;20672;-88
2021/07/24 03:34:11;;;;;;;24.77;13.82;;;;;;;18.81;82.46;95753.50;5032499;28;20206;-88
2021/07/24 03:36:40;;;;;;;27.60;15.25;;;;;;;18.95;82.04;95752.16;5032481;28;20218;-88
2021/07/24 03:39:07;;;;;;;29.25;14.57;;;;;;;19.07;82.35;95739.59;5031977;28;20198;-90
2021/07/24 03:41:35;;;;;;;32.42;14.30;;;;;;;19.09;81.85;95737.47;5035203;28;20202;-89
2021/07/24 03:44:02;;;;;;;25.63;14.13;;;;;;;18.74;82.98;95738.69;5036294;28;20202;-90
2021/07/24 03:46:28;;;;;;;24.45;14.55;;;;;;;18.83;82.63;95738.06;5036165;28;20252;-90
2021/07/24 03:48:55;;;;;;;22.92;14.40;;;;;;;18.92;82.33;95725.16;5035716;28;20233;-90
2021/07/24 03:51:22;;;;;;;32.88;14.32;;;;;;;18.98;82.66;95730.34;5036187;28;20206;-90
2021/07/24 03:53:49;;;;;;;29.55;14.35;;;;;;;18.74;83.84;95726.16;5036109;28;20667;-89
2021/07/24 03:56:18;;;;;;;24.92;14.48;;;;;;;19.00;83.53;95725.53;5035855;28;20221;-90
2021/07/24 03:58:46;;;;;;;29.83;15.40;;;;;;;19.09;83.69;95722.28;5036038;28;20198;-90
2021/07/24 04:01:12;;;;;;;25.58;14.05;;;;;;;19.11;83.81;95725.50;5036221;28;20202;-90
2021/07/24 04:03:39;;;;;;;28.25;15.70;;;;;;;19.12;84.47;95723.66;5035728;28;20205;-90
2021/07/24 04:06:08;;;;;;;36.17;17.08;;;;;;;19.27;84.95;95724.72;5035594;28;20233;-90
2021/07/24 04:08:36;;;;;;;27.50;14.40;;;;;;;19.40;83.67;95720.91;5035571;28;20218;-90
2021/07/24 04:11:04;;;;;;;24.67;14.75;;;;;;;19.53;83.66;95715.25;5035831;28;20202;-90
2021/07/24 04:13:34;;;;;;;27.67;15.68;;;;;;;19.56;84.25;95717.44;5035348;28;20213;-90
2021/07/24 04:16:01;;;;;;;28.35;16.25;;;;;;;19.52;85.10;95714.41;5035602;28;20230;-91
2021/07/24 04:18:30;;;;;;;34.50;17.60;;;;;;;19.40;85.62;95704.88;5035916;28;20197;-91
2021/07/24 04:20:58;;;;;;;34.65;17.25;;;;;;;19.48;86.07;95712.50;5035593;28;20202;-90
2021/07/24 04:23:25;;;;;;;41.00;18.60;;;;;;;19.59;85.99;95701.72;5035515;28;20267;-90
2021/07/24 04:25:51;;;;;;;34.60;18.27;;;;;;;19.68;86.14;95717.09;5035326;28;20224;-91
2021/07/24 04:28:18;;;;;;;31.73;17.60;;;;;;;19.74;86.70;95717.94;5035438;28;20570;-90
2021/07/24 04:30:45;;;;;;;34.80;18.52;;;;;;;19.81;86.98;95721.28;5035290;28;20201;-90
2021/07/24 04:33:12;;;;;;;33.35;17.65;;;;;;;19.94;86.65;95711.06;5035378;28;20655;-90
2021/07/24 04:35:44;;;;;;;36.78;17.60;;;;;;;20.16;86.61;95709.22;5035114;28;20218;-89
2021/07/24 04:38:11;;;;;;;32.17;15.88;;;;;;;20.22;86.15;95702.88;5035160;28;20201;-89
2021/07/24 04:40:38;;;;;;;29.00;16.08;;;;;;;20.34;86.15;95701.69;5035167;28;20697;-90
2021/07/24 04:43:04;;;;;;;29.20;16.45;;;;;;;20.29;85.87;95693.59;5035369;28;20662;-90
2021/07/24 04:45:31;;;;;;;28.40;17.25;;;;;;;20.37;86.34;95709.22;5034751;28;20232;-90
2021/07/24 04:47:59;;;;;;;35.63;18.52;;;;;;;20.52;86.35;95719.28;5034966;28;20206;-90
2021/07/24 04:50:25;;;;;;;36.10;17.50;;;;;;;20.54;85.66;95719.84;5033159;28;20225;-89
2021/07/24 04:52:52;;;;;;;31.30;17.27;;;;;;;20.70;83.89;95732.38;5032655;28;20206;-90
2021/07/24 04:55:20;;;;;;;32.58;18.30;;;;;;;20.79;85.38;95720.19;5033148;28;20698;-90
2021/07/24 04:57:46;;;;;;;36.05;18.80;;;;;;;20.92;84.80;95721.38;5032097;28;20206;-89
2021/07/24 05:00:13;;;;;;;34.13;17.45;;;;;;;20.99;84.15;95715.81;5032458;28;20213;-89
2021/07/24 05:02:42;;;;;;;31.85;17.42;;;;;;;21.07;83.76;95718.84;5028749;28;20209;-89
2021/07/24 05:05:11;;;;;;;32.67;17.92;;;;;;;21.17;83.89;95718.94;5028075;28;20316;-90
2021/07/24 05:07:38;;;;;;;38.58;18.33;;;;;;;21.15;84.08;95729.09;5028029;28;20209;-89
2021/07/24 05:10:08;;;;;;;35.50;17.70;;;;;;;21.29;83.00;95734.84;5027913;28;20265;-90
2021/07/24 05:12:35;;;;;;;35.72;16.77;;;;;;;21.33;80.96;95738.66;5027864;28;20210;-90
2021/07/24 05:15:01;;;;;;;29.20;15.85;;;;;;;21.29;81.25;95750.94;5027802;28;20738;-89
2021/07/24 05:17:28;;;;;;;27.15;16.02;;;;;;;21.23;81.37;95758.13;5028052;28;20491;-90
2021/07/24 05:19:54;;;;;;;30.13;16.42;;;;;;;21.30;80.41;95766.75;5028544;28;20336;-90
2021/07/24 05:22:22;;;;;;;27.23;16.17;;;;;;;21.56;79.15;95760.59;5028637;28;20213;-90
2021/07/24 05:24:49;;;;;;;31.85;16.13;;;;;;;21.55;81.29;95753.63;5029439;28;20201;-90
2021/07/24 05:27:18;;;;;;;30.20;16.58;;;;;;;21.69;80.86;95754.78;5034882;28;20198;-91
2021/07/24 05:29:44;;;;;;;28.38;16.27;;;;;;;21.33;80.36;95744.00;5031022;28;20230;-90
2021/07/24 05:32:10;;;;;;;29.30;15.95;;;;;;;21.41;80.81;95730.13;5030480;28;20560;-91
2021/07/24 05:34:37;;;;;;;28.85;15.23;;;;;;;21.51;81.80;95728.38;5030057;28;20210;-90
2021/07/24 05:37:04;;;;;;;27.40;15.70;;;;;;;21.61;81.96;95726.59;5029747;28;20297;-90
2021/07/24 05:39:32;;;;;;;26.08;15.68;;;;;;;21.67;81.74;95716.69;5029491;28;20237;-90
2021/07/24 05:41:59;;;;;;;33.45;15.77;;;;;;;21.45;82.44;95711.41;5030677;28;20205;-90
2021/07/24 05:44:25;;;;;;;29.33;16.33;;;;;;;21.63;83.17;95713.72;5031443;28;20696;-90
2021/07/24 05:46:52;;;;;;;27.42;15.77;;;;;;;21.71;81.96;95717.78;5030644;28;20224;-90
2021/07/24 05:49:18;;;;;;;26.80;14.30;;;;;;;21.91;81.73;95716.06;5030660;28;20226;-90
2021/07/24 05:51:45;;;;;;;27.23;15.80;;;;;;;22.07;79.91;95715.88;5031142;28;20212;-90
2021/07/24 05:54:12;;;;;;;28.80;16.38;;;;;;;22.20;80.21;95714.63;5030878;28;20209;-91
2021/07/24 05:56:40;;;;;;;25.33;15.25;;;;;;;22.11;81.51;95714.28;5030110;28;20224;-91
2021/07/24 05:59:06;;;;;;;28.83;15.95;;;;;;;22.19;79.62;95737.94;5030078;28;20198;-90
2021/07/24 06:01:33;;;;;;;28.42;16.00;;;;;;;21.83;82.20;95747.91;5030554;28;20197;-90
2021/07/24 06:03:59;;;;;;;27.20;16.48;;;;;;;22.16;80.39;95754.59;5029100;28;20566;-91
2021/07/24 06:06:26;;;;;;;27.90;16.08;;;;;;;21.85;81.15;95789.50;5029485;28;20230;-90
2021/07/24 06:08:53;;;;;;;27.58;15.77;;;;;;;21.60;81.65;95799.22;5030136;28;20221;-90
2021/07/24 06:11:19;;;;;;;28.15;16.73;;;;;;;21.35;82.26;95822.31;5029732;28;20201;-90
2021/07/24 06:13:47;;;;;;;28.40;16.77;;;;;;;21.53;81.71;95823.56;5030014;28;20216;-90
2021/07/24 06:16:14;;;;;;;29.33;15.98;;;;;;;21.79;81.02;95819.25;5030672;28;20678;-91
2021/07/24 06:18:40;;;;;;;31.02;16.65;;;;;;;21.74;80.24;95824.56;5029195;28;20659;-91
2021/07/24 06:21:07;;;;;;;34.42;16.45;;;;;;;22.01;79.94;95809.22;5030418;28;20202;-91
2021/07/24 06:23:33;;;;;;;27.00;14.52;;;;;;;22.03;79.93;95812.47;5029870;28;20285;-90
2021/07/24 06:26:02;;;;;;;33.15;17.15;;;;;;;22.16;80.03;95818.19;5030720;28;20221;-88
2021/07/24 06:28:29;;;;;;;29.02;15.95;;;;;;;22.16;78.80;95816.31;5031603;28;20208;-88
2021/07/24 06:30:57;;;;;;;35.35;16.73;;;;;;;22.38;77.48;95824.28;5030657;28;20253;-89
2021/07/24 06:33:23;;;;;;;27.20;15.13;;;;;;;22.44;78.51;95831.28;5030581;28;20201;-88
2021/07/24 06:35:50;;;;;;;27.35;14.48;;;;;;;22.60;77.26;95833.78;5031582;28;20218;-88
2021/07/24 06:38:16;;;;;;;27.25;14.48;;;;;;;22.70;76.00;95833.84;5031966;28;20205;-88
2021/07/24 06:40:42;;;;;;;27.00;14.02;;;;;;;22.86;74.48;95827.47;5031744;28;20198;-88
2021/07/24 06:43:09;;;;;;;29.45;15.30;;;;;;;22.98;75.00;95836.94;5032372;28;20202;-89
2021/07/24 06:45:35;;;;;;;27.25;15.85;;;;;;;22.86;76.07;95835.53;5032297;28;20254;-88
2021/07/24 06:48:04;;;;;;;27.17;15.30;;;;;;;22.90;75.33;95850.06;5032210;28;20300;-89
2021/07/24 06:50:30;;;;;;;26.08;14.75;;;;;;;22.83;77.16;95863.72;5032315;28;20226;-88
2021/07/24 06:52:58;;;;;;;28.27;15.05;;;;;;;22.85;74.39;95875.03;5031833;28;20213;-88
2021/07/24 06:55:25;;;;;;;26.15;15.93;;;;;;;22.70;73.94;95879.53;5031348;28;20226;-88
2021/07/24 06:57:51;;;;;;;26.38;15.73;;;;;;;22.62;74.85;95890.75;5030861;28;20213;-88
2021/07/24 07:00:18;;;;;;;29.80;15.63;;;;;;;22.45;77.26;95890.09;5031772;28;20213;-88
2021/07/24 07:02:45;;;;;;;29.23;14.77;;;;;;;22.73;76.18;95892.41;5031726;28;20206;-88
2021/07/24 07:05:13;;;;;;;29.95;15.20;;;;;;;22.91;75.35;95891.97;5030952;28;20702;-89
2021/07/24 07:07:39;;;;;;;29.17;16.27;;;;;;;22.88;75.86;95901.38;5029954;28;20253;-88
2021/07/24 07:10:06;;;;;;;28.02;15.80;;;;;;;22.74;77.99;95881.41;5030475;28;20686;-88
2021/07/24 07:12:33;;;;;;;24.52;13.73;;;;;;;22.98;75.06;95863.81;5031518;28;20576;-88
2021/07/24 07:15:01;;;;;;;30.13;17.10;;;;;;;22.94;75.68;95862.72;5031197;28;20608;-87
2021/07/24 07:17:28;;;;;;;32.38;17.20;;;;;;;22.74;76.20;95902.09;5027333;28;20545;-87
2021/07/24 07:19:54;;;;;;;35.60;18.50;;;;;;;22.11;81.68;95859.22;5028620;28;20194;-87
2021/07/24 07:22:22;;;;;;;34.95;18.80;;;;;;;22.71;78.90;95873.88;5029849;28;20201;-88
2021/07/24 07:24:49;;;;;;;33.60;17.83;;;;;;;22.67;78.21;95898.84;5026560;28;20206;-87
2021/07/24 07:27:15;;;;;;;38.08;19.38;;;;;;;22.44;80.20;95893.03;5027303;28;20209;-88
2021/07/24 07:29:43;;;;;;;31.45;17.77;;;;;;;22.87;77.94;95893.56;5028946;28;20226;-87
2021/07/24 07:32:09;;;;;;;32.00;16.65;;;;;;;22.63;78.48;95873.56;5028188;28;20229;-88
2021/07/24 07:34:36;;;;;;;30.90;16.50;;;;;;;22.46;77.50;95859.50;5028744;28;20202;-88
2021/07/24 07:37:02;;;;;;;28.38;17.45;;;;;;;23.08;75.74;95857.72;5029701;28;20225;-88
2021/07/24 07:39:30;;;;;;;28.13;16.35;;;;;;;23.41;74.43;95866.16;5027096;28;20205;-88
2021/07/24 07:41:57;;;;;;;28.98;16.67;;;;;;;22.97;75.28;95864.06;5028121;28;20521;-88
2021/07/24 07:44:24;;;;;;;28.40;17.02;;;;;;;23.22;72.33;95856.94;5030533;28;20208;-88
2021/07/24 07:46:51;;;;;;;28.17;16.23;;;;;;;23.21;74.26;95866.06;5031247;28;20288;-88
2021/07/24 07:49:17;;;;;;;27.73;17.00;;;;;;;23.09;76.09;95860.13;5028883;28;20206;-88
2021/07/24 07:51:44;;;;;;;33.47;17.85;;;;;;;23.17;77.30;95854.25;5030046;28;20198;-89
2021/07/24 07:54:10;;;;;;;28.70;16.95;;;;;;;23.21;79.11;95851.84;5029756;28;20213;-88
2021/07/24 07:56:38;;;;;;;31.58;17.10;;;;;;;23.56;74.25;95863.47;5028890;28;20240;-88
2021/07/24 07:59:08;;;;;;;31.85;16.55;;;;;;;23.75;73.36;95854.69;5029680;28;20264;-88
2021/07/24 08:01:35;;;;;;;29.13;15.98;;;;;;;24.03;74.22;95859.53;5025182;28;20208;-89
2021/07/24 08:04:01;;;;;;;30.35;16.42;;;;;;;24.16;72.54;95864.38;5025377;28;20202;-89
2021/07/24 08:06:28;;;;;;;31.10;16.77;;;;;;;24.50;72.02;95863.56;5024986;28;20238;-89
2021/07/24 08:08:54;;;;;;;28.35;16.83;;;;;;;24.38;71.67;95871.13;5025523;28;20217;-89
2021/07/24 08:11:21;;;;;;;30.80;16.67;;;;;;;24.18;73.71;95881.06;5025462;28;20674;-88
2021/07/24 08:13:48;;;;;;;28.10;16.50;;;;;;;24.31;72.13;95885.91;5025112;28;20217;-89
2021/07/24 08:16:17;;;;;;;31.65;15.73;;;;;;;24.27;71.73;95887.53;5024589;28;20226;-89
2021/07/24 08:18:43;;;;;;;27.85;15.68;;;;;;;24.18;70.81;95902.63;5025368;28;20209;-89
2021/07/24 08:21:10;;;;;;;31.00;16.15;;;;;;;24.16;71.93;95910.16;5025620;28;20385;-89
2021/07/24 08:23:37;;;;;;;32.50;16.33;;;;;;;24.14;72.86;95901.53;5025495;28;20769;-88
2021/07/24 08:26:03;;;;;;;28.17;15.65;;;;;;;23.77;72.68;95910.94;5025240;28;20257;-88
2021/07/24 08:28:30;;;;;;;28.05;16.83;;;;;;;23.51;74.32;95918.09;5028729;28;20214;-89
2021/07/24 08:30:59;;;;;;;30.98;16.88;;;;;;;23.76;74.55;95922.75;5028668;28;20599;-88
2021/07/24 08:33:25;;;;;;;32.00;16.38;;;;;;;23.44;75.05;95928.28;5029847;28;20244;-89
2021/07/24 08:35:52;;;;;;;31.33;15.63;;;;;;;23.37;75.18;95933.09;5030913;28;20222;-88
2021/07/24 08:38:18;;;;;;;33.25;16.90;;;;;;;23.26;74.78;95925.25;5031150;28;20209;-90
2021/07/24 08:40:47;;;;;;;30.15;16.90;;;;;;;23.48;74.91;95915.91;5030629;28;20765;-89
2021/07/24 08:43:14;;;;;;;28.80;16.90;;;;;;;23.31;75.33;95895.69;5030377;28;20206;-89
2021/07/24 08:45:41;;;;;;;28.83;14.80;;;;;;;22.97;75.32;95907.88;5028370;28;20225;-89
2021/07/24 08:48:09;;;;;;;20.77;10.23;;;;;;;22.90;75.46;95903.81;5029496;28;20959;-89
2021/07/24 08:50:36;;;;;;;29.90;16.15;;;;;;;22.90;76.15;95903.81;5028734;28;20230;-89
2021/07/24 08:53:05;;;;;;;28.67;16.15;;;;;;;22.90;76.57;95899.25;5028238;28;20202;-88
2021/07/24 08:55:32;;;;;;;31.52;16.80;;;;;;;23.04;77.53;95910.34;5027980;28;20276;-89
2021/07/24 08:58:00;;;;;;;30.73;16.80;;;;;;;23.00;77.88;95914.63;5027782;28;20469;-87
2021/07/24 09:00:27;;;;;;;30.60;15.98;;;;;;;23.18;79.55;95915.00;5028037;28;20249;-88
2021/07/24 09:02:58;;;;;;;35.17;18.27;;;;;;;23.11;80.18;95906.34;5030413;28;20662;-90
2021/07/24 09:05:29;;;;;;;33.25;18.20;;;;;;;22.75;82.01;95901.84;5035736;28;20221;-90
2021/07/24 09:07:58;;;;;;;30.52;17.77;;;;;;;22.52;82.18;95896.06;5034339;28;20194;-90
2021/07/24 09:10:24;;;;;;;35.95;18.35;;;;;;;22.48;83.53;95886.91;5036466;28;20561;-90
2021/07/24 09:12:55;;;;;;;37.90;18.92;;;;;;;23.00;83.60;95890.44;5035021;28;20202;-89
2021/07/24 09:15:21;;;;;;;37.92;19.10;;;;;;;22.85;82.36;95872.34;5034311;28;20217;-90
2021/07/24 09:17:48;;;;;;;33.83;17.88;;;;;;;22.81;83.04;95865.88;5033411;28;20198;-90
2021/07/24 09:20:17;;;;;;;31.35;17.30;;;;;;;23.21;81.67;95852.63;5036453;28;20201;-90
2021/07/24 09:22:46;;;;;;;31.88;18.67;;;;;;;23.38;83.33;95821.78;5035544;28;20205;-92
2021/07/24 09:25:15;;;;;;;34.28;18.80;;;;;;;23.16;82.16;95823.03;5034420;28;20221;-90
2021/07/24 09:27:43;;;;;;;34.45;19.60;;;;;;;22.93;80.89;95810.03;5020240;28;20214;-90
2021/07/24 09:30:28;;;;;;;33.10;19.48;;;;;;;23.17;82.97;95796.97;5020680;28;20299;-91
2021/07/24 09:33:01;;;;;;;31.02;18.23;;;;;;;23.09;79.97;95771.44;5020880;28;20210;-90
2021/07/24 09:35:34;;;;;;;33.65;18.10;;;;;;;23.26;80.33;95758.53;5019705;28;21308;-90
2021/07/24 09:38:02;;;;;;;32.22;18.42;;;;;;;23.36;80.60;95762.06;5019411;28;20883;-91
2021/07/24 09:40:29;;;;;;;34.80;17.80;;;;;;;23.33;80.13;95757.22;5019628;28;20225;-90
2021/07/24 09:42:55;;;;;;;30.95;17.17;;;;;;;22.95;79.96;95761.38;5019683;28;20212;-90
2021/07/24 09:45:22;;;;;;;33.88;18.90;;;;;;;23.11;80.78;95763.09;5017560;28;20416;-90
2021/07/24 09:47:52;;;;;;;31.02;17.58;;;;;;;23.01;81.85;95771.13;5019409;28;20201;-90
2021/07/24 09:50:18;;;;;;;32.60;18.58;;;;;;;23.25;82.58;95781.13;5019326;28;20218;-90
2021/07/24 09:52:47;;;;;;;33.28;19.40;;;;;;;23.48;80.31;95788.69;5018483;28;20555;-91
2021/07/24 09:55:21;;;;;;;33.67;18.20;;;;;;;23.39;81.42;95785.72;5018262;28;20217;-89
2021/07/24 09:57:48;;;;;;;34.85;19.98;;;;;;;23.59;81.19;95774.19;5028019;28;20216;-90
2021/07/24 10:00:23;;;;;;;32.33;18.40;;;;;;;24.27;79.01;95772.53;5028043;28;20214;-91
2021/07/24 10:03:00;;;;;;;29.58;17.52;;;;;;;24.41;77.43;95778.19;5022213;28;20237;-90
2021/07/24 10:05:33;;;;;;;33.30;18.90;;;;;;;24.65;76.62;95780.00;5023569;28;20228;-90
2021/07/24 10:08:03;;;;;;;33.55;19.05;;;;;;;24.90;75.15;95775.31;5022283;28;20206;-90
2021/07/24 10:10:33;;;;;;;31.00;18.55;;;;;;;24.72;74.99;95775.94;5022115;28;20347;-90
2021/07/24 10:13:02;;;;;;;32.83;18.33;;;;;;;24.87;74.90;95772.38;5019026;28;20582;-89
2021/07/24 10:15:35;;;;;;;33.72;19.30;;;;;;;24.72;76.84;95775.94;5019198;28;20564;-90
2021/07/24 10:18:02;;;;;;;37.97;19.65;;;;;;;24.93;76.61;95776.66;5019657;28;20666;-89
2021/07/24 10:20:29;;;;;;;35.53;19.15;;;;;;;24.91;75.03;95782.34;5020313;28;20203;-88
2021/07/24 10:22:56;;;;;;;27.35;16.73;;;;;;;24.75;75.54;95779.97;5017927;28;20205;-89
2021/07/24 10:25:23;;;;;;;33.00;19.23;;;;;;;24.71;77.74;95784.31;5018959;28;20233;-89
2021/07/24 10:27:54;;;;;;;32.78;19.25;;;;;;;24.72;77.89;95781.34;5019534;28;20674;-89
2021/07/24 10:30:28;;;;;;;30.73;17.88;;;;;;;24.60;78.98;95783.53;5019549;28;20233;-88
2021/07/24 10:32:57;;;;;;;34.28;19.33;;;;;;;24.33;80.38;95793.00;5019316;28;20276;-89
2021/07/24 10:35:43;;;;;;;35.25;20.00;;;;;;;24.46;79.92;95803.22;5019537;28;20229;-89
2021/07/24 10:38:33;;;;;;;46.05;21.00;;;;;;;24.40;79.25;95803.50;5019993;28;20205;-87
2021/07/24 10:41:48;;;;;;;35.42;20.35;;;;;;;24.48;79.50;95806.47;5017145;28;20208;-88
2021/07/24 10:44:34;;;;;;;42.38;19.75;;;;;;;23.76;82.55;95794.38;5018658;28;20209;-89
2021/07/24 10:47:15;;;;;;;34.90;19.48;;;;;;;24.52;81.13;95791.38;5018120;28;20686;-89
2021/07/24 10:49:59;;;;;;;36.55;19.42;;;;;;;24.61;79.62;95787.03;5017312;28;20655;-89
2021/07/24 10:52:26;;;;;;;35.42;20.45;;;;;;;24.51;80.74;95797.84;5017779;28;20221;-89
2021/07/24 10:55:15;;;;;;;35.35;18.05;;;;;;;24.70;80.51;95791.56;5017925;28;20198;-89
2021/07/24 10:58:06;;;;;;;33.67;19.48;;;;;;;24.80;78.53;95788.84;5017623;28;20205;-88
2021/07/24 11:00:40;;;;;;;31.77;18.83;;;;;;;24.73;80.47;95782.13;5018655;28;20198;-89
2021/07/24 11:03:33;;;;;;;37.92;19.33;;;;;;;24.57;81.71;95778.69;5022721;28;20620;-89
2021/07/24 11:06:00;;;;;;;30.35;18.95;;;;;;;24.84;78.83;95773.72;5027747;28;20226;-88
2021/07/24 11:09:01;;;;;;;33.70;18.90;;;;;;;24.99;77.85;95764.78;5023497;28;20198;-88
2021/07/24 11:11:40;;;;;;;32.55;18.20;;;;;;;25.03;76.05;95761.25;5024692;28;20796;-89
2021/07/24 11:14:07;;;;;;;33.33;19.33;;;;;;;24.84;80.87;95754.06;5022881;28;20210;-89
2021/07/24 11:17:12;;;;;;;35.40;19.52;;;;;;;25.51;76.40;95745.06;5021455;28;20218;-88
2021/07/24 11:19:41;;;;;;;28.90;17.08;;;;;;;25.74;74.83;95746.25;5025076;28;20616;-88
2021/07/24 11:22:08;;;;;;;32.72;16.85;;;;;;;25.79;76.53;95747.03;5022406;28;20229;-88
2021/07/24 11:24:34;;;;;;;28.13;15.93;;;;;;;26.02;73.22;95741.69;5023906;28;20205;-89
2021/07/24 11:27:01;;;;;;;28.63;17.17;;;;;;;25.80;75.49;95745.91;5018865;28;20683;-89